sensor_id;sensor_type;location;lat;lon;timestamp;temperature;humidity
69464;DHT22;56665;41.106;16.688;2022-07-06T00:02:13;28.76;51.33
69464;DHT22;56665;41.106;16.688;2022-07-06T00:05:17;28.76;51.56
69464;DHT22;56665;41.106;16.688;2022-07-06T00:08:21;28.72;52.08
69464;DHT22;56665;41.106;16.688;2022-07-06T00:11:24;28.60;52.26
69464;DHT22;56665;41.106;16.688;2022-07-06T00:14:28;28.59;52.60
69464;DHT22;56665;41.106;16.688;2022-07-06T00:17:32;28.60;53.07
69464;DHT22;56665;41.106;16.688;2022-07-06T00:20:36;28.52;53.33
69464;DHT22;56665;41.106;16.688;2022-07-06T00:23:39;28.46;54.20
69464;DHT22;56665;41.106;16.688;2022-07-06T00:26:44;28.45;55.40
69464;DHT22;56665;41.106;16.688;2022-07-06T00:29:48;28.48;55.47
69464;DHT22;56665;41.106;16.688;2022-07-06T00:32:52;28.46;55.50
69464;DHT22;56665;41.106;16.688;2022-07-06T00:35:56;28.42;55.67
69464;DHT22;56665;41.106;16.688;2022-07-06T00:39:00;28.40;55.76
69464;DHT22;56665;41.106;16.688;2022-07-06T00:42:03;28.40;56.15
69464;DHT22;56665;41.106;16.688;2022-07-06T00:45:08;28.38;56.37
69464;DHT22;56665;41.106;16.688;2022-07-06T00:48:12;28.39;56.56
69464;DHT22;56665;41.106;16.688;2022-07-06T00:51:16;28.33;56.63
69464;DHT22;56665;41.106;16.688;2022-07-06T00:54:21;28.29;56.93
69464;DHT22;56665;41.106;16.688;2022-07-06T00:57:25;28.19;57.38
69464;DHT22;56665;41.106;16.688;2022-07-06T01:00:30;28.17;57.52
69464;DHT22;56665;41.106;16.688;2022-07-06T01:03:34;28.15;57.63
69464;DHT22;56665;41.106;16.688;2022-07-06T01:06:38;28.18;57.71
69464;DHT22;56665;41.106;16.688;2022-07-06T01:09:42;28.14;58.01
69464;DHT22;56665;41.106;16.688;2022-07-06T01:12:47;28.12;58.49
69464;DHT22;56665;41.106;16.688;2022-07-06T01:15:51;28.07;58.92
69464;DHT22;56665;41.106;16.688;2022-07-06T01:18:56;28.07;59.28
69464;DHT22;56665;41.106;16.688;2022-07-06T01:22:00;28.08;59.58
69464;DHT22;56665;41.106;16.688;2022-07-06T01:25:05;28.04;59.83
69464;DHT22;56665;41.106;16.688;2022-07-06T01:28:10;28.02;59.95
69464;DHT22;56665;41.106;16.688;2022-07-06T01:31:16;27.98;60.08
69464;DHT22;56665;41.106;16.688;2022-07-06T01:34:21;27.97;60.16
69464;DHT22;56665;41.106;16.688;2022-07-06T01:37:25;27.97;60.10
69464;DHT22;56665;41.106;16.688;2022-07-06T01:40:28;28.00;60.24
69464;DHT22;56665;41.106;16.688;2022-07-06T01:43:33;27.91;60.44
69464;DHT22;56665;41.106;16.688;2022-07-06T01:46:37;27.94;60.71
69464;DHT22;56665;41.106;16.688;2022-07-06T01:49:42;27.90;60.77
69464;DHT22;56665;41.106;16.688;2022-07-06T01:52:46;27.90;60.79
69464;DHT22;56665;41.106;16.688;2022-07-06T01:55:50;27.94;60.67
69464;DHT22;56665;41.106;16.688;2022-07-06T01:58:54;27.90;60.56
69464;DHT22;56665;41.106;16.688;2022-07-06T02:01:59;27.91;60.18
69464;DHT22;56665;41.106;16.688;2022-07-06T02:05:03;27.91;59.81
69464;DHT22;56665;41.106;16.688;2022-07-06T02:08:07;27.95;59.15
69464;DHT22;56665;41.106;16.688;2022-07-06T02:11:11;27.97;58.27
69464;DHT22;56665;41.106;16.688;2022-07-06T02:14:16;28.01;56.82
69464;DHT22;56665;41.106;16.688;2022-07-06T02:17:20;27.97;56.56
69464;DHT22;56665;41.106;16.688;2022-07-06T02:20:24;27.95;55.98
69464;DHT22;56665;41.106;16.688;2022-07-06T02:23:27;27.94;55.82
69464;DHT22;56665;41.106;16.688;2022-07-06T02:26:32;27.95;55.58
69464;DHT22;56665;41.106;16.688;2022-07-06T02:29:35;27.97;55.34
69464;DHT22;56665;41.106;16.688;2022-07-06T02:32:40;27.98;55.19
69464;DHT22;56665;41.106;16.688;2022-07-06T02:35:44;27.94;55.02
69464;DHT22;56665;41.106;16.688;2022-07-06T02:38:49;27.91;54.87
69464;DHT22;56665;41.106;16.688;2022-07-06T02:41:54;27.95;54.56
69464;DHT22;56665;41.106;16.688;2022-07-06T02:44:57;27.91;54.30
69464;DHT22;56665;41.106;16.688;2022-07-06T02:48:02;27.92;54.20
69464;DHT22;56665;41.106;16.688;2022-07-06T02:51:06;27.95;53.77
69464;DHT22;56665;41.106;16.688;2022-07-06T02:54:11;27.88;53.34
69464;DHT22;56665;41.106;16.688;2022-07-06T02:57:15;27.90;53.12
69464;DHT22;56665;41.106;16.688;2022-07-06T03:00:20;27.81;53.38
69464;DHT22;56665;41.106;16.688;2022-07-06T03:03:24;27.78;53.16
69464;DHT22;56665;41.106;16.688;2022-07-06T03:06:28;27.85;52.61
69464;DHT22;56665;41.106;16.688;2022-07-06T03:09:32;27.92;52.56
69464;DHT22;56665;41.106;16.688;2022-07-06T03:12:36;27.95;52.34
69464;DHT22;56665;41.106;16.688;2022-07-06T03:15:40;27.95;52.28
69464;DHT22;56665;41.106;16.688;2022-07-06T03:18:44;27.98;51.75
69464;DHT22;56665;41.106;16.688;2022-07-06T03:21:48;27.95;51.82
69464;DHT22;56665;41.106;16.688;2022-07-06T03:24:51;27.95;51.58
69464;DHT22;56665;41.106;16.688;2022-07-06T03:27:55;27.92;51.56
69464;DHT22;56665;41.106;16.688;2022-07-06T03:30:59;27.85;51.86
69464;DHT22;56665;41.106;16.688;2022-07-06T03:34:03;27.91;51.66
69464;DHT22;56665;41.106;16.688;2022-07-06T03:37:07;27.91;51.50
69464;DHT22;56665;41.106;16.688;2022-07-06T03:40:14;27.88;51.73
69464;DHT22;56665;41.106;16.688;2022-07-06T03:43:19;27.95;51.51
69464;DHT22;56665;41.106;16.688;2022-07-06T03:46:24;27.94;51.66
69464;DHT22;56665;41.106;16.688;2022-07-06T03:49:27;27.90;51.85
69464;DHT22;56665;41.106;16.688;2022-07-06T03:52:35;27.97;51.95
69464;DHT22;56665;41.106;16.688;2022-07-06T03:55:38;28.01;51.99
69464;DHT22;56665;41.106;16.688;2022-07-06T03:58:45;28.08;52.00
69464;DHT22;56665;41.106;16.688;2022-07-06T04:01:48;28.08;52.01
69464;DHT22;56665;41.106;16.688;2022-07-06T04:04:54;28.14;52.15
69464;DHT22;56665;41.106;16.688;2022-07-06T04:07:59;28.19;52.01
69464;DHT22;56665;41.106;16.688;2022-07-06T04:11:10;28.21;52.21
69464;DHT22;56665;41.106;16.688;2022-07-06T04:14:15;28.29;52.23
69464;DHT22;56665;41.106;16.688;2022-07-06T04:17:20;28.33;52.29
69464;DHT22;56665;41.106;16.688;2022-07-06T04:20:43;28.39;52.47
69464;DHT22;56665;41.106;16.688;2022-07-06T04:23:47;28.48;52.39
69464;DHT22;56665;41.106;16.688;2022-07-06T04:26:50;28.55;52.41
69464;DHT22;56665;41.106;16.688;2022-07-06T04:29:54;28.62;52.38
69464;DHT22;56665;41.106;16.688;2022-07-06T04:32:58;28.70;52.43
69464;DHT22;56665;41.106;16.688;2022-07-06T04:36:05;28.73;52.50
69464;DHT22;56665;41.106;16.688;2022-07-06T04:39:15;28.72;52.09
69464;DHT22;56665;41.106;16.688;2022-07-06T04:42:19;28.89;52.45
69464;DHT22;56665;41.106;16.688;2022-07-06T04:45:24;29.07;52.37
69464;DHT22;56665;41.106;16.688;2022-07-06T04:48:28;29.24;52.13
69464;DHT22;56665;41.106;16.688;2022-07-06T04:51:32;29.39;52.18
69464;DHT22;56665;41.106;16.688;2022-07-06T04:54:36;29.59;51.89
69464;DHT22;56665;41.106;16.688;2022-07-06T04:57:41;29.81;51.66
69464;DHT22;56665;41.106;16.688;2022-07-06T05:00:45;29.99;51.52
69464;DHT22;56665;41.106;16.688;2022-07-06T05:03:49;30.21;51.14
69464;DHT22;56665;41.106;16.688;2022-07-06T05:06:55;30.40;50.92
69464;DHT22;56665;41.106;16.688;2022-07-06T05:09:59;30.60;50.70
69464;DHT22;56665;41.106;16.688;2022-07-06T05:13:03;30.72;50.63
69464;DHT22;56665;41.106;16.688;2022-07-06T05:16:07;30.89;50.41
69464;DHT22;56665;41.106;16.688;2022-07-06T05:19:11;31.11;50.19
69464;DHT22;56665;41.106;16.688;2022-07-06T05:22:14;31.19;50.19
69464;DHT22;56665;41.106;16.688;2022-07-06T05:25:18;31.36;49.97
69464;DHT22;56665;41.106;16.688;2022-07-06T05:28:22;31.63;49.49
69464;DHT22;56665;41.106;16.688;2022-07-06T05:31:26;31.90;49.22
69464;DHT22;56665;41.106;16.688;2022-07-06T05:34:30;32.20;48.89
69464;DHT22;56665;41.106;16.688;2022-07-06T05:37:34;32.38;48.74
69464;DHT22;56665;41.106;16.688;2022-07-06T05:40:37;32.62;48.48
69464;DHT22;56665;41.106;16.688;2022-07-06T05:43:41;32.82;48.33
69464;DHT22;56665;41.106;16.688;2022-07-06T05:46:45;32.90;48.45
69464;DHT22;56665;41.106;16.688;2022-07-06T05:49:49;33.12;48.41
69464;DHT22;56665;41.106;16.688;2022-07-06T05:53:11;33.14;48.38
69464;DHT22;56665;41.106;16.688;2022-07-06T05:56:16;33.39;48.68
69464;DHT22;56665;41.106;16.688;2022-07-06T05:59:20;33.64;48.41
69464;DHT22;56665;41.106;16.688;2022-07-06T06:02:24;33.92;47.89
69464;DHT22;56665;41.106;16.688;2022-07-06T06:05:27;34.18;47.49
69464;DHT22;56665;41.106;16.688;2022-07-06T06:08:36;34.18;47.41
69464;DHT22;56665;41.106;16.688;2022-07-06T06:11:41;34.36;47.17
69464;DHT22;56665;41.106;16.688;2022-07-06T06:14:45;34.56;46.82
69464;DHT22;56665;41.106;16.688;2022-07-06T06:17:49;34.97;45.91
69464;DHT22;56665;41.106;16.688;2022-07-06T06:20:53;35.17;45.56
69464;DHT22;56665;41.106;16.688;2022-07-06T06:23:57;35.08;45.32
69464;DHT22;56665;41.106;16.688;2022-07-06T06:27:01;35.47;44.67
69464;DHT22;56665;41.106;16.688;2022-07-06T06:30:05;35.86;44.15
69464;DHT22;56665;41.106;16.688;2022-07-06T06:33:11;36.09;43.55
69464;DHT22;56665;41.106;16.688;2022-07-06T06:36:14;36.40;42.90
69464;DHT22;56665;41.106;16.688;2022-07-06T06:39:18;36.50;42.57
69464;DHT22;56665;41.106;16.688;2022-07-06T06:42:22;36.71;42.40
69464;DHT22;56665;41.106;16.688;2022-07-06T06:45:28;36.78;42.24
69464;DHT22;56665;41.106;16.688;2022-07-06T06:48:31;36.94;41.89
69464;DHT22;56665;41.106;16.688;2022-07-06T06:51:35;37.21;41.05
69464;DHT22;56665;41.106;16.688;2022-07-06T06:54:40;37.43;40.59
69464;DHT22;56665;41.106;16.688;2022-07-06T06:57:44;37.77;39.75
69464;DHT22;56665;41.106;16.688;2022-07-06T07:00:48;37.99;39.42
69464;DHT22;56665;41.106;16.688;2022-07-06T07:03:51;38.16;39.38
69464;DHT22;56665;41.106;16.688;2022-07-06T07:06:55;39.23;38.14
69464;DHT22;56665;41.106;16.688;2022-07-06T07:09:59;40.05;36.93
69464;DHT22;56665;41.106;16.688;2022-07-06T07:13:03;41.29;35.47
69464;DHT22;56665;41.106;16.688;2022-07-06T07:16:07;43.00;32.82
69464;DHT22;56665;41.106;16.688;2022-07-06T07:19:11;44.34;31.23
69464;DHT22;56665;41.106;16.688;2022-07-06T07:22:15;46.24;29.31
69464;DHT22;56665;41.106;16.688;2022-07-06T07:25:18;47.16;28.77
69464;DHT22;56665;41.106;16.688;2022-07-06T07:28:22;47.86;28.43
69464;DHT22;56665;41.106;16.688;2022-07-06T07:31:26;48.24;28.76
69464;DHT22;56665;41.106;16.688;2022-07-06T07:34:29;48.79;28.33
69464;DHT22;56665;41.106;16.688;2022-07-06T07:37:33;49.32;28.03
69464;DHT22;56665;41.106;16.688;2022-07-06T07:40:37;49.63;28.04
69464;DHT22;56665;41.106;16.688;2022-07-06T07:43:40;49.58;28.26
69464;DHT22;56665;41.106;16.688;2022-07-06T07:46:44;49.32;28.71
69464;DHT22;56665;41.106;16.688;2022-07-06T07:49:48;48.75;28.97
69464;DHT22;56665;41.106;16.688;2022-07-06T07:52:52;49.12;28.71
69464;DHT22;56665;41.106;16.688;2022-07-06T07:55:56;47.80;29.87
69464;DHT22;56665;41.106;16.688;2022-07-06T07:59:00;48.14;29.80
69464;DHT22;56665;41.106;16.688;2022-07-06T08:02:06;49.02;29.23
69464;DHT22;56665;41.106;16.688;2022-07-06T08:05:10;49.33;28.75
69464;DHT22;56665;41.106;16.688;2022-07-06T08:08:17;48.52;29.58
69464;DHT22;56665;41.106;16.688;2022-07-06T08:11:21;49.01;28.86
69464;DHT22;56665;41.106;16.688;2022-07-06T08:14:25;49.51;28.45
69464;DHT22;56665;41.106;16.688;2022-07-06T08:17:29;49.01;29.04
69464;DHT22;56665;41.106;16.688;2022-07-06T08:20:33;48.37;29.44
69464;DHT22;56665;41.106;16.688;2022-07-06T08:23:37;48.76;28.88
69464;DHT22;56665;41.106;16.688;2022-07-06T08:26:41;48.83;28.76
69464;DHT22;56665;41.106;16.688;2022-07-06T08:29:44;49.10;28.67
69464;DHT22;56665;41.106;16.688;2022-07-06T08:32:48;48.69;28.89
69464;DHT22;56665;41.106;16.688;2022-07-06T08:35:52;48.85;28.92
69464;DHT22;56665;41.106;16.688;2022-07-06T08:38:56;48.14;29.53
69464;DHT22;56665;41.106;16.688;2022-07-06T08:42:00;46.88;30.88
69464;DHT22;56665;41.106;16.688;2022-07-06T08:45:06;45.92;32.25
69464;DHT22;56665;41.106;16.688;2022-07-06T08:48:11;46.04;32.44
69464;DHT22;56665;41.106;16.688;2022-07-06T08:51:16;46.30;32.10
69464;DHT22;56665;41.106;16.688;2022-07-06T08:54:21;46.81;31.63
69464;DHT22;56665;41.106;16.688;2022-07-06T08:57:26;47.05;31.29
69464;DHT22;56665;41.106;16.688;2022-07-06T09:00:31;46.11;32.33
69464;DHT22;56665;41.106;16.688;2022-07-06T09:03:35;44.58;33.79
69464;DHT22;56665;41.106;16.688;2022-07-06T09:06:42;43.94;34.84
69464;DHT22;56665;41.106;16.688;2022-07-06T09:09:46;43.70;35.39
69464;DHT22;56665;41.106;16.688;2022-07-06T09:12:50;42.06;37.92
69464;DHT22;56665;41.106;16.688;2022-07-06T09:15:53;41.47;38.63
69464;DHT22;56665;41.106;16.688;2022-07-06T09:18:57;41.37;38.65
69464;DHT22;56665;41.106;16.688;2022-07-06T09:22:01;41.71;39.15
69464;DHT22;56665;41.106;16.688;2022-07-06T09:28:14;40.97;40.52
69464;DHT22;56665;41.106;16.688;2022-07-06T09:31:17;41.17;40.32
69464;DHT22;56665;41.106;16.688;2022-07-06T09:34:21;40.56;41.62
69464;DHT22;56665;41.106;16.688;2022-07-06T09:37:29;40.18;42.17
69464;DHT22;56665;41.106;16.688;2022-07-06T09:40:35;40.41;41.11
69464;DHT22;56665;41.106;16.688;2022-07-06T09:43:39;40.63;40.59
69464;DHT22;56665;41.106;16.688;2022-07-06T09:46:46;40.60;40.69
69464;DHT22;56665;41.106;16.688;2022-07-06T09:49:49;41.04;39.87
69464;DHT22;56665;41.106;16.688;2022-07-06T09:52:59;40.90;40.17
69464;DHT22;56665;41.106;16.688;2022-07-06T09:56:03;41.27;39.49
69464;DHT22;56665;41.106;16.688;2022-07-06T09:59:12;41.04;39.35
69464;DHT22;56665;41.106;16.688;2022-07-06T10:02:15;40.65;39.54
69464;DHT22;56665;41.106;16.688;2022-07-06T10:05:21;39.67;40.82
69464;DHT22;56665;41.106;16.688;2022-07-06T10:08:31;40.05;39.95
69464;DHT22;56665;41.106;16.688;2022-07-06T10:11:39;39.68;39.61
69464;DHT22;56665;41.106;16.688;2022-07-06T10:14:43;39.45;38.51
69464;DHT22;56665;41.106;16.688;2022-07-06T10:17:47;39.45;38.57
69464;DHT22;56665;41.106;16.688;2022-07-06T10:20:52;39.78;38.67
69464;DHT22;56665;41.106;16.688;2022-07-06T10:23:56;39.13;39.45
69464;DHT22;56665;41.106;16.688;2022-07-06T10:27:03;38.75;39.88
69464;DHT22;56665;41.106;16.688;2022-07-06T10:30:07;38.74;38.99
69464;DHT22;56665;41.106;16.688;2022-07-06T10:33:13;37.74;40.20
69464;DHT22;56665;41.106;16.688;2022-07-06T10:36:18;38.06;39.98
69464;DHT22;56665;41.106;16.688;2022-07-06T10:39:36;37.74;40.27
69464;DHT22;56665;41.106;16.688;2022-07-06T10:43:00;37.38;40.71
69464;DHT22;56665;41.106;16.688;2022-07-06T10:46:13;37.73;40.53
69464;DHT22;56665;41.106;16.688;2022-07-06T10:49:17;37.93;40.15
69464;DHT22;56665;41.106;16.688;2022-07-06T10:52:21;37.97;38.10
69464;DHT22;56665;41.106;16.688;2022-07-06T10:55:32;38.14;37.73
69464;DHT22;56665;41.106;16.688;2022-07-06T10:58:45;38.51;36.96
69464;DHT22;56665;41.106;16.688;2022-07-06T11:02:13;38.89;35.77
69464;DHT22;56665;41.106;16.688;2022-07-06T11:05:40;38.52;35.76
69464;DHT22;56665;41.106;16.688;2022-07-06T11:09:08;37.93;36.47
69464;DHT22;56665;41.106;16.688;2022-07-06T11:12:17;38.21;37.32
69464;DHT22;56665;41.106;16.688;2022-07-06T11:15:47;38.30;36.91
69464;DHT22;56665;41.106;16.688;2022-07-06T11:22:10;38.52;36.58
69464;DHT22;56665;41.106;16.688;2022-07-06T11:25:15;38.20;37.03
69464;DHT22;56665;41.106;16.688;2022-07-06T11:28:20;37.96;37.23
69464;DHT22;56665;41.106;16.688;2022-07-06T11:31:24;37.77;37.99
69464;DHT22;56665;41.106;16.688;2022-07-06T11:34:32;37.53;38.67
69464;DHT22;56665;41.106;16.688;2022-07-06T11:37:36;37.62;39.03
69464;DHT22;56665;41.106;16.688;2022-07-06T11:40:39;37.26;38.42
69464;DHT22;56665;41.106;16.688;2022-07-06T11:43:45;37.24;38.13
69464;DHT22;56665;41.106;16.688;2022-07-06T11:46:50;37.35;39.80
69464;DHT22;56665;41.106;16.688;2022-07-06T11:49:54;37.33;39.85
69464;DHT22;56665;41.106;16.688;2022-07-06T11:52:58;36.91;39.91
69464;DHT22;56665;41.106;16.688;2022-07-06T11:56:02;36.71;38.88
69464;DHT22;56665;41.106;16.688;2022-07-06T11:59:08;36.68;37.64
69464;DHT22;56665;41.106;16.688;2022-07-06T12:02:14;36.85;38.12
69464;DHT22;56665;41.106;16.688;2022-07-06T12:05:29;36.95;38.84
69464;DHT22;56665;41.106;16.688;2022-07-06T12:11:51;37.55;36.70
69464;DHT22;56665;41.106;16.688;2022-07-06T12:14:56;36.91;36.76
69464;DHT22;56665;41.106;16.688;2022-07-06T12:17:59;36.73;37.83
69464;DHT22;56665;41.106;16.688;2022-07-06T12:21:04;36.25;37.67
69464;DHT22;56665;41.106;16.688;2022-07-06T12:24:07;36.54;37.37
69464;DHT22;56665;41.106;16.688;2022-07-06T12:27:16;36.62;36.55
69464;DHT22;56665;41.106;16.688;2022-07-06T12:30:20;36.56;38.17
69464;DHT22;56665;41.106;16.688;2022-07-06T12:33:24;36.19;39.52
69464;DHT22;56665;41.106;16.688;2022-07-06T12:36:42;36.22;39.34
69464;DHT22;56665;41.106;16.688;2022-07-06T12:39:47;36.23;39.08
69464;DHT22;56665;41.106;16.688;2022-07-06T12:42:51;36.20;37.68
69464;DHT22;56665;41.106;16.688;2022-07-06T12:45:55;36.27;38.67
69464;DHT22;56665;41.106;16.688;2022-07-06T12:49:00;36.13;38.38
69464;DHT22;56665;41.106;16.688;2022-07-06T12:52:12;35.74;36.78
69464;DHT22;56665;41.106;16.688;2022-07-06T12:55:17;35.81;36.41
69464;DHT22;56665;41.106;16.688;2022-07-06T12:58:20;35.58;37.70
69464;DHT22;56665;41.106;16.688;2022-07-06T13:01:24;35.71;37.40
69464;DHT22;56665;41.106;16.688;2022-07-06T13:04:30;35.57;38.15
69464;DHT22;56665;41.106;16.688;2022-07-06T13:07:36;35.75;37.39
69464;DHT22;56665;41.106;16.688;2022-07-06T13:10:40;34.90;38.48
69464;DHT22;56665;41.106;16.688;2022-07-06T13:13:46;35.48;38.01
69464;DHT22;56665;41.106;16.688;2022-07-06T13:16:50;35.75;37.51
69464;DHT22;56665;41.106;16.688;2022-07-06T13:19:53;35.85;37.68
69464;DHT22;56665;41.106;16.688;2022-07-06T13:22:57;36.15;37.14
69464;DHT22;56665;41.106;16.688;2022-07-06T13:26:01;35.93;36.95
69464;DHT22;56665;41.106;16.688;2022-07-06T13:29:05;36.20;36.96
69464;DHT22;56665;41.106;16.688;2022-07-06T13:32:09;36.64;36.24
69464;DHT22;56665;41.106;16.688;2022-07-06T13:35:13;36.67;36.13
69464;DHT22;56665;41.106;16.688;2022-07-06T13:38:16;36.33;36.68
69464;DHT22;56665;41.106;16.688;2022-07-06T13:41:20;36.22;37.07
69464;DHT22;56665;41.106;16.688;2022-07-06T13:44:24;36.58;37.09
69464;DHT22;56665;41.106;16.688;2022-07-06T13:47:28;36.13;36.09
69464;DHT22;56665;41.106;16.688;2022-07-06T13:50:32;35.85;37.06
69464;DHT22;56665;41.106;16.688;2022-07-06T13:53:36;36.06;37.55
69464;DHT22;56665;41.106;16.688;2022-07-06T13:56:40;36.33;37.54
69464;DHT22;56665;41.106;16.688;2022-07-06T13:59:44;35.95;37.17
69464;DHT22;56665;41.106;16.688;2022-07-06T14:02:49;35.68;37.62
69464;DHT22;56665;41.106;16.688;2022-07-06T14:05:53;36.05;38.02
69464;DHT22;56665;41.106;16.688;2022-07-06T14:08:58;35.58;38.52
69464;DHT22;56665;41.106;16.688;2022-07-06T14:12:02;35.48;39.16
69464;DHT22;56665;41.106;16.688;2022-07-06T14:15:07;34.90;40.18
69464;DHT22;56665;41.106;16.688;2022-07-06T14:18:11;35.38;39.16
69464;DHT22;56665;41.106;16.688;2022-07-06T14:21:14;35.41;39.42
69464;DHT22;56665;41.106;16.688;2022-07-06T14:24:18;35.11;39.80
69464;DHT22;56665;41.106;16.688;2022-07-06T14:27:22;34.96;40.40
69464;DHT22;56665;41.106;16.688;2022-07-06T14:30:25;34.64;41.34
69464;DHT22;56665;41.106;16.688;2022-07-06T14:33:29;34.52;41.61
69464;DHT22;56665;41.106;16.688;2022-07-06T14:36:33;34.43;42.41
69464;DHT22;56665;41.106;16.688;2022-07-06T14:39:38;34.26;42.58
69464;DHT22;56665;41.106;16.688;2022-07-06T14:42:41;34.29;42.23
69464;DHT22;56665;41.106;16.688;2022-07-06T14:45:45;34.06;42.88
69464;DHT22;56665;41.106;16.688;2022-07-06T14:48:49;34.12;42.66
69464;DHT22;56665;41.106;16.688;2022-07-06T14:51:53;34.25;42.28
69464;DHT22;56665;41.106;16.688;2022-07-06T14:54:56;34.39;42.25
69464;DHT22;56665;41.106;16.688;2022-07-06T14:58:02;34.19;42.94
69464;DHT22;56665;41.106;16.688;2022-07-06T15:01:06;34.05;43.35
69464;DHT22;56665;41.106;16.688;2022-07-06T15:04:10;33.97;43.22
69464;DHT22;56665;41.106;16.688;2022-07-06T15:07:14;34.06;43.15
69464;DHT22;56665;41.106;16.688;2022-07-06T15:10:18;34.05;43.09
69464;DHT22;56665;41.106;16.688;2022-07-06T15:13:23;33.84;43.59
69464;DHT22;56665;41.106;16.688;2022-07-06T15:16:27;33.68;43.48
69464;DHT22;56665;41.106;16.688;2022-07-06T15:19:32;33.70;42.72
69464;DHT22;56665;41.106;16.688;2022-07-06T15:22:36;33.71;42.48
69464;DHT22;56665;41.106;16.688;2022-07-06T15:25:40;33.61;42.27
69464;DHT22;56665;41.106;16.688;2022-07-06T15:28:44;33.02;42.43
69464;DHT22;56665;41.106;16.688;2022-07-06T15:31:47;32.61;43.56
69464;DHT22;56665;41.106;16.688;2022-07-06T15:34:51;32.51;44.74
69464;DHT22;56665;41.106;16.688;2022-07-06T15:37:55;32.65;45.05
69464;DHT22;56665;41.106;16.688;2022-07-06T15:41:03;32.78;45.31
69464;DHT22;56665;41.106;16.688;2022-07-06T15:44:06;32.90;45.53
69464;DHT22;56665;41.106;16.688;2022-07-06T15:47:10;33.09;44.62
69464;DHT22;56665;41.106;16.688;2022-07-06T15:50:14;33.20;44.48
69464;DHT22;56665;41.106;16.688;2022-07-06T15:53:21;33.37;44.27
69464;DHT22;56665;41.106;16.688;2022-07-06T15:56:25;33.49;43.69
69464;DHT22;56665;41.106;16.688;2022-07-06T15:59:29;33.61;43.85
69464;DHT22;56665;41.106;16.688;2022-07-06T16:02:33;33.53;44.54
69464;DHT22;56665;41.106;16.688;2022-07-06T16:05:37;33.47;44.55
69464;DHT22;56665;41.106;16.688;2022-07-06T16:08:41;33.04;44.79
69464;DHT22;56665;41.106;16.688;2022-07-06T16:11:45;32.89;45.84
69464;DHT22;56665;41.106;16.688;2022-07-06T16:14:49;32.73;46.10
69464;DHT22;56665;41.106;16.688;2022-07-06T16:17:53;32.58;46.86
69464;DHT22;56665;41.106;16.688;2022-07-06T16:20:56;32.55;47.56
69464;DHT22;56665;41.106;16.688;2022-07-06T16:24:00;32.46;48.10
69464;DHT22;56665;41.106;16.688;2022-07-06T16:27:04;32.39;48.18
69464;DHT22;56665;41.106;16.688;2022-07-06T16:30:08;32.44;47.77
69464;DHT22;56665;41.106;16.688;2022-07-06T16:33:13;32.45;47.69
69464;DHT22;56665;41.106;16.688;2022-07-06T16:36:18;32.41;48.53
69464;DHT22;56665;41.106;16.688;2022-07-06T16:39:21;32.31;48.83
69464;DHT22;56665;41.106;16.688;2022-07-06T16:42:25;32.05;48.04
69464;DHT22;56665;41.106;16.688;2022-07-06T16:45:29;31.87;48.73
69464;DHT22;56665;41.106;16.688;2022-07-06T16:48:33;31.72;49.42
69464;DHT22;56665;41.106;16.688;2022-07-06T16:51:36;31.59;49.76
69464;DHT22;56665;41.106;16.688;2022-07-06T16:54:40;31.43;50.02
69464;DHT22;56665;41.106;16.688;2022-07-06T16:57:44;31.26;49.98
69464;DHT22;56665;41.106;16.688;2022-07-06T17:00:48;31.14;50.95
69464;DHT22;56665;41.106;16.688;2022-07-06T17:03:52;31.06;51.78
69464;DHT22;56665;41.106;16.688;2022-07-06T17:06:58;31.06;52.28
69464;DHT22;56665;41.106;16.688;2022-07-06T17:10:03;31.06;52.09
69464;DHT22;56665;41.106;16.688;2022-07-06T17:13:06;31.05;52.42
69464;DHT22;56665;41.106;16.688;2022-07-06T17:16:10;31.08;52.52
69464;DHT22;56665;41.106;16.688;2022-07-06T17:19:14;31.08;52.70
69464;DHT22;56665;41.106;16.688;2022-07-06T17:22:18;31.09;52.68
69464;DHT22;56665;41.106;16.688;2022-07-06T17:25:23;31.14;52.09
69464;DHT22;56665;41.106;16.688;2022-07-06T17:28:27;31.15;51.74
69464;DHT22;56665;41.106;16.688;2022-07-06T17:31:31;31.12;51.83
69464;DHT22;56665;41.106;16.688;2022-07-06T17:34:35;31.12;51.90
69464;DHT22;56665;41.106;16.688;2022-07-06T17:37:39;31.05;51.84
69464;DHT22;56665;41.106;16.688;2022-07-06T17:40:44;30.92;50.86
69464;DHT22;56665;41.106;16.688;2022-07-06T17:43:48;30.84;51.50
69464;DHT22;56665;41.106;16.688;2022-07-06T17:46:52;30.69;51.73
69464;DHT22;56665;41.106;16.688;2022-07-06T17:49:55;30.60;51.39
69464;DHT22;56665;41.106;16.688;2022-07-06T17:52:59;30.54;52.55
69464;DHT22;56665;41.106;16.688;2022-07-06T17:56:03;30.43;53.23
69464;DHT22;56665;41.106;16.688;2022-07-06T17:59:07;30.40;53.34
69464;DHT22;56665;41.106;16.688;2022-07-06T18:02:10;30.28;52.63
69464;DHT22;56665;41.106;16.688;2022-07-06T18:05:14;30.17;53.03
69464;DHT22;56665;41.106;16.688;2022-07-06T18:08:20;30.10;52.90
69464;DHT22;56665;41.106;16.688;2022-07-06T18:11:24;30.05;53.14
69464;DHT22;56665;41.106;16.688;2022-07-06T18:14:27;29.98;53.35
69464;DHT22;56665;41.106;16.688;2022-07-06T18:17:31;29.98;52.96
69464;DHT22;56665;41.106;16.688;2022-07-06T18:20:35;29.93;53.48
69464;DHT22;56665;41.106;16.688;2022-07-06T18:23:39;29.89;53.83
69464;DHT22;56665;41.106;16.688;2022-07-06T18:26:43;29.86;53.72
69464;DHT22;56665;41.106;16.688;2022-07-06T18:29:49;29.95;53.65
69464;DHT22;56665;41.106;16.688;2022-07-06T18:32:53;29.90;53.79
69464;DHT22;56665;41.106;16.688;2022-07-06T18:35:59;29.89;54.93
69464;DHT22;56665;41.106;16.688;2022-07-06T18:39:03;29.85;54.03
69464;DHT22;56665;41.106;16.688;2022-07-06T18:42:07;29.76;54.49
69464;DHT22;56665;41.106;16.688;2022-07-06T18:45:10;29.76;53.50
69464;DHT22;56665;41.106;16.688;2022-07-06T18:48:14;29.72;53.44
69464;DHT22;56665;41.106;16.688;2022-07-06T18:51:18;29.69;53.43
69464;DHT22;56665;41.106;16.688;2022-07-06T18:54:22;29.63;53.16
69464;DHT22;56665;41.106;16.688;2022-07-06T18:57:26;29.62;52.64
69464;DHT22;56665;41.106;16.688;2022-07-06T19:00:30;29.59;51.82
69464;DHT22;56665;41.106;16.688;2022-07-06T19:03:34;29.54;51.71
69464;DHT22;56665;41.106;16.688;2022-07-06T19:06:37;29.55;51.50
69464;DHT22;56665;41.106;16.688;2022-07-06T19:09:41;29.55;51.46
69464;DHT22;56665;41.106;16.688;2022-07-06T19:12:45;29.54;51.21
69464;DHT22;56665;41.106;16.688;2022-07-06T19:15:49;29.51;50.94
69464;DHT22;56665;41.106;16.688;2022-07-06T19:18:53;29.48;51.66